createdAt,value
2019-02-03T00:00:44.414Z,99.99
2019-02-03T00:01:44.457Z,99.99
2019-02-03T00:02:44.460Z,99.99
2019-02-03T00:03:44.398Z,99.99
2019-02-03T00:04:44.147Z,99.99
2019-02-03T00:05:44.371Z,99.99
2019-02-03T00:06:44.112Z,99.99
2019-02-03T00:07:44.470Z,99.99
2019-02-03T00:08:44.340Z,99.99
2019-02-03T00:09:44.339Z,99.99
2019-02-03T00:10:44.324Z,99.99
2019-02-03T00:11:44.316Z,99.99
2019-02-03T00:12:44.307Z,99.99
2019-02-03T00:13:44.054Z,99.99
2019-02-03T00:14:44.048Z,99.99
2019-02-03T00:15:44.044Z,99.99
2019-02-03T00:16:44.038Z,99.99
2019-02-03T00:17:44.262Z,99.99
2019-02-03T00:18:47.390Z,99.99
2019-02-03T00:19:43.996Z,99.99
2019-02-03T00:20:43.990Z,99.99
2019-02-03T00:21:44.227Z,99.99
2019-02-03T00:22:44.240Z,99.99
2019-02-03T00:23:44.215Z,99.99
2019-02-03T00:24:44.547Z,99.99
2019-02-03T00:25:43.956Z,99.99
2019-02-03T00:26:44.195Z,99.99
2019-02-03T00:27:43.936Z,99.99
2019-02-03T00:28:43.926Z,99.99
2019-02-03T00:29:44.167Z,99.99
2019-02-03T00:30:43.903Z,99.99
2019-02-03T00:31:43.894Z,99.99
2019-02-03T00:32:44.427Z,99.99
2019-02-03T00:33:44.135Z,99.99
2019-02-03T00:34:44.969Z,99.99
2019-02-03T00:35:44.112Z,99.99
2019-02-03T00:36:44.106Z,99.99
2019-02-03T00:37:43.884Z,99.99
2019-02-03T00:38:44.289Z,99.99
2019-02-03T00:39:44.091Z,99.99
2019-02-03T00:40:44.375Z,99.99
2019-02-03T00:41:44.081Z,99.99
2019-02-03T00:42:44.050Z,99.99
2019-02-03T00:43:44.053Z,99.99
2019-02-03T00:44:43.791Z,99.99
2019-02-03T00:45:44.017Z,99.99
2019-02-03T00:46:44.031Z,99.99
2019-02-03T00:47:43.768Z,99.99
2019-02-03T00:48:43.999Z,99.99
2019-02-03T00:49:43.747Z,99.99
2019-02-03T00:50:43.974Z,99.99
2019-02-03T00:51:43.979Z,99.99
2019-02-03T00:52:43.962Z,99.99
2019-02-03T00:53:43.717Z,99.99
2019-02-03T00:54:44.057Z,99.99
2019-02-03T00:55:43.932Z,99.99
2019-02-03T00:56:43.925Z,99.99
2019-02-03T00:57:44.180Z,99.99
2019-02-03T00:58:43.654Z,99.99
2019-02-03T00:59:43.650Z,99.99
2019-02-03T01:00:43.887Z,99.99
2019-02-03T01:01:43.874Z,99.99
2019-02-03T01:02:43.616Z,99.99
2019-02-03T01:03:43.865Z,99.99
2019-02-03T01:04:43.599Z,99.99
2019-02-03T01:05:44.237Z,99.99
2019-02-03T01:06:43.593Z,99.99
2019-02-03T01:07:43.827Z,99.99
2019-02-03T01:08:43.581Z,99.99
2019-02-03T01:09:43.806Z,99.99
2019-02-03T01:10:43.552Z,99.99
2019-02-03T01:11:43.956Z,99.99
2019-02-03T01:12:44.119Z,99.99
2019-02-03T01:13:44.133Z,99.99
2019-02-03T01:14:43.783Z,99.99
2019-02-03T01:15:43.751Z,99.99
2019-02-03T01:16:43.801Z,99.99
2019-02-03T01:17:43.530Z,99.99
2019-02-03T01:18:43.914Z,99.99
2019-02-03T01:19:43.754Z,99.99
2019-02-03T01:20:43.704Z,99.99
2019-02-03T01:21:44.026Z,99.99
2019-02-03T01:22:43.693Z,99.99
2019-02-03T01:23:43.687Z,99.99
2019-02-03T01:24:43.670Z,99.99
2019-02-03T01:25:43.658Z,99.99
2019-02-03T01:26:43.647Z,99.99
2019-02-03T01:27:43.638Z,99.99
2019-02-03T01:28:43.633Z,99.99
2019-02-03T01:29:44.018Z,99.99
2019-02-03T01:30:43.613Z,99.99
2019-02-03T01:31:43.601Z,99.99
2019-02-03T01:32:43.603Z,99.99
2019-02-03T01:33:43.582Z,99.99
2019-02-03T01:34:43.589Z,99.99
2019-02-03T01:35:43.318Z,99.99
2019-02-03T01:36:43.557Z,99.99
2019-02-03T01:37:44.453Z,99.99
2019-02-03T01:38:43.549Z,99.99
2019-02-03T01:39:43.540Z,99.99
2019-02-03T01:40:43.549Z,99.99
2019-02-03T01:41:43.513Z,99.99
2019-02-03T01:42:43.499Z,99.99
2019-02-03T01:43:43.494Z,99.99
2019-02-03T01:44:43.252Z,99.99
2019-02-03T01:45:43.473Z,99.99
2019-02-03T01:46:43.547Z,99.99
2019-02-03T01:47:43.463Z,99.99
2019-02-03T01:48:43.585Z,99.99
2019-02-03T01:49:43.582Z,99.99
2019-02-03T01:50:43.534Z,99.99
2019-02-03T01:51:43.481Z,99.99
2019-02-03T01:52:43.176Z,99.99
2019-02-03T01:53:43.388Z,99.99
2019-02-03T01:54:43.163Z,99.99
2019-02-03T01:55:43.386Z,99.99
2019-02-03T01:56:43.410Z,99.99
2019-02-03T01:57:43.367Z,99.99
2019-02-03T01:58:43.360Z,99.99
2019-02-03T01:59:43.351Z,99.99
2019-02-03T02:00:43.342Z,99.99
2019-02-03T02:01:43.342Z,99.99
2019-02-03T02:02:43.333Z,99.99
2019-02-03T02:03:43.321Z,99.99
2019-02-03T02:04:43.313Z,99.99
2019-02-03T02:05:43.608Z,99.99
2019-02-03T02:06:43.302Z,99.99
2019-02-03T02:07:54.174Z,99.99
2019-02-03T02:08:43.286Z,99.99
2019-02-03T02:09:43.045Z,99.99
2019-02-03T02:10:43.286Z,99.99
2019-02-03T02:11:43.386Z,99.99
2019-02-03T02:12:43.246Z,99.99
2019-02-03T02:13:42.986Z,99.99
2019-02-03T02:14:43.229Z,99.99
2019-02-03T02:15:43.207Z,99.99
2019-02-03T02:16:42.959Z,99.99
2019-02-03T02:17:43.190Z,99.99
2019-02-03T02:18:42.922Z,99.99
2019-02-03T02:19:42.923Z,99.99
2019-02-03T02:20:43.156Z,99.99
2019-02-03T02:21:43.143Z,99.99
2019-02-03T02:22:43.153Z,99.99
2019-02-03T02:23:43.128Z,99.99
2019-02-03T02:24:42.864Z,99.99
2019-02-03T02:25:42.890Z,99.99
2019-02-03T02:26:43.101Z,99.99
2019-02-03T02:27:43.110Z,99.99
2019-02-03T02:28:43.074Z,99.99
2019-02-03T02:29:43.068Z,99.99
2019-02-03T02:30:43.082Z,99.99
2019-02-03T02:31:42.802Z,99.99
2019-02-03T02:32:43.067Z,99.99
2019-02-03T02:33:43.035Z,99.99
2019-02-03T02:34:43.037Z,99.99
2019-02-03T02:35:42.806Z,99.99
2019-02-03T02:36:43.104Z,99.99
2019-02-03T02:37:42.749Z,99.99
2019-02-03T02:38:43.003Z,99.99
2019-02-03T02:39:42.986Z,99.99
2019-02-03T02:40:42.988Z,99.99
2019-02-03T02:41:42.714Z,99.99
2019-02-03T02:42:42.946Z,99.99
2019-02-03T02:43:42.959Z,99.99
2019-02-03T02:44:42.929Z,99.99
2019-02-03T02:45:42.668Z,99.99
2019-02-03T02:46:42.920Z,99.99
2019-02-03T02:47:42.704Z,99.99
2019-02-03T02:48:42.958Z,99.99
2019-02-03T02:49:42.631Z,99.99
2019-02-03T02:50:42.618Z,99.99
2019-02-03T02:51:42.639Z,99.99
2019-02-03T02:52:42.599Z,99.99
2019-02-03T02:53:42.869Z,99.99
2019-02-03T02:54:42.838Z,99.99
2019-02-03T02:55:42.617Z,99.99
2019-02-03T02:56:42.821Z,99.99
2019-02-03T02:57:42.988Z,99.99
2019-02-03T02:58:42.783Z,99.99
2019-02-03T02:59:42.793Z,99.99
2019-02-03T03:00:42.573Z,99.99
2019-02-03T03:01:42.511Z,99.99
2019-02-03T03:02:42.742Z,99.99
2019-02-03T03:03:42.497Z,99.99
2019-02-03T03:04:42.739Z,99.99
2019-02-03T03:05:42.744Z,99.99
2019-02-03T03:06:43.914Z,99.99
2019-02-03T03:07:42.465Z,99.99
2019-02-03T03:08:42.719Z,99.99
2019-02-03T03:09:42.694Z,99.99
2019-02-03T03:10:42.672Z,99.99
2019-02-03T03:11:42.662Z,99.99
2019-02-03T03:12:42.669Z,99.99
2019-02-03T03:13:42.413Z,99.99
2019-02-03T03:14:43.003Z,99.99
2019-02-03T03:15:42.625Z,99.99
2019-02-03T03:16:42.627Z,99.99
2019-02-03T03:17:42.605Z,99.99
2019-02-03T03:18:42.600Z,99.99
2019-02-03T03:19:42.592Z,99.99
2019-02-03T03:20:42.585Z,99.99
2019-02-03T03:21:42.329Z,99.99
2019-02-03T03:22:42.952Z,99.99
2019-02-03T03:23:42.546Z,99.99
2019-02-03T03:24:42.305Z,99.99
2019-02-03T03:25:42.529Z,99.99
2019-02-03T03:26:42.519Z,99.99
2019-02-03T03:27:42.563Z,99.99
2019-02-03T03:28:42.256Z,99.99
2019-02-03T03:29:42.489Z,99.99
2019-02-03T03:30:42.855Z,99.99
2019-02-03T03:31:42.475Z,99.99
2019-02-03T03:32:42.476Z,99.99
2019-02-03T03:33:42.489Z,99.99
2019-02-03T03:34:42.456Z,99.99
2019-02-03T03:35:42.446Z,99.99
2019-02-03T03:36:42.678Z,99.99
2019-02-03T03:37:42.418Z,99.99
2019-02-03T03:38:42.706Z,99.99
2019-02-03T03:39:42.404Z,99.99
2019-02-03T03:40:42.401Z,99.99
2019-02-03T03:41:42.164Z,99.99
2019-02-03T03:42:42.368Z,99.99
2019-02-03T03:43:42.358Z,99.99
2019-02-03T03:44:42.098Z,99.99
2019-02-03T03:45:42.357Z,99.99
2019-02-03T03:46:42.713Z,99.99
2019-02-03T03:47:42.325Z,99.99
2019-02-03T03:48:42.318Z,99.99
2019-02-03T03:49:42.062Z,99.99
2019-02-03T03:50:42.290Z,99.99
2019-02-03T03:51:42.296Z,99.99
2019-02-03T03:52:42.262Z,99.99
2019-02-03T03:53:42.271Z,99.99
2019-02-03T03:54:42.761Z,99.99
2019-02-03T03:55:42.251Z,99.99
2019-02-03T03:56:42.224Z,99.99
2019-02-03T03:57:42.213Z,99.99
2019-02-03T03:58:42.198Z,99.99
2019-02-03T03:59:42.193Z,99.99
2019-02-03T04:00:42.195Z,99.99
2019-02-03T04:01:42.184Z,99.99
2019-02-03T04:02:42.506Z,99.99
2019-02-03T04:03:42.164Z,99.99
2019-02-03T04:04:42.144Z,99.99
2019-02-03T04:05:42.133Z,99.99
2019-02-03T04:06:41.882Z,99.99
2019-02-03T04:07:42.118Z,99.99
2019-02-03T04:08:47.865Z,99.99
2019-02-03T04:09:42.096Z,99.99
2019-02-03T04:10:42.383Z,99.99
2019-02-03T04:11:42.071Z,99.99
2019-02-03T04:12:42.078Z,99.99
2019-02-03T04:13:41.808Z,99.99
2019-02-03T04:14:42.050Z,99.99
2019-02-03T04:15:42.036Z,99.99
2019-02-03T04:16:42.037Z,99.99
2019-02-03T04:17:42.058Z,99.99
2019-02-03T04:18:42.281Z,99.99
2019-02-03T04:19:42.024Z,99.99
2019-02-03T04:20:42.000Z,99.99
2019-02-03T04:21:41.995Z,99.99
2019-02-03T04:22:41.723Z,99.99
2019-02-03T04:23:41.723Z,99.99
2019-02-03T04:24:41.957Z,99.99
2019-02-03T04:25:41.708Z,99.99
2019-02-03T04:26:42.176Z,99.99
2019-02-03T04:27:41.677Z,99.99
2019-02-03T04:28:41.933Z,99.99
2019-02-03T04:29:41.910Z,99.99
2019-02-03T04:30:41.907Z,99.99
2019-02-03T04:31:41.891Z,99.99
2019-02-03T04:32:41.887Z,99.99
2019-02-03T04:33:41.612Z,99.99
2019-02-03T04:34:42.065Z,99.99
2019-02-03T04:35:41.860Z,99.99
2019-02-03T04:36:41.839Z,99.99
2019-02-03T04:37:41.818Z,99.99
2019-02-03T04:38:41.836Z,99.99
2019-02-03T04:39:41.563Z,99.99
2019-02-03T04:40:41.789Z,99.99
2019-02-03T04:41:41.543Z,99.99
2019-02-03T04:42:41.900Z,99.99
2019-02-03T04:43:41.769Z,99.99
2019-02-03T04:44:41.504Z,99.99
2019-02-03T04:45:41.756Z,99.99
2019-02-03T04:46:41.491Z,99.99
2019-02-03T04:47:41.547Z,99.99
2019-02-03T04:48:41.468Z,99.99
2019-02-03T04:49:41.458Z,99.99
2019-02-03T04:50:41.449Z,99.99
2019-02-03T04:51:41.693Z,99.99
2019-02-03T04:52:41.425Z,99.99
2019-02-03T04:53:41.663Z,99.99
2019-02-03T04:54:41.652Z,99.99
2019-02-03T04:55:41.642Z,99.99
2019-02-03T04:56:41.701Z,99.99
2019-02-03T04:57:41.619Z,99.99
2019-02-03T04:58:41.614Z,99.99
2019-02-03T04:59:41.607Z,99.99
2019-02-03T05:00:41.588Z,99.99
2019-02-03T05:01:41.338Z,99.99
2019-02-03T05:02:41.571Z,99.99
2019-02-03T05:03:41.578Z,99.99
2019-02-03T05:04:41.569Z,99.99
2019-02-03T05:05:41.302Z,99.99
2019-02-03T05:06:41.306Z,99.99
2019-02-03T05:07:44.355Z,99.99
2019-02-03T05:08:41.279Z,99.99
2019-02-03T05:09:41.522Z,99.99
2019-02-03T05:10:41.506Z,99.99
2019-02-03T05:11:41.533Z,99.99
2019-02-03T05:12:41.497Z,99.99
2019-02-03T05:13:41.224Z,99.99
2019-02-03T05:14:41.470Z,99.99
2019-02-03T05:15:41.195Z,99.99
2019-02-03T05:16:41.446Z,99.99
2019-02-03T05:17:41.195Z,99.99
2019-02-03T05:18:41.433Z,99.99
2019-02-03T05:19:41.167Z,99.99
2019-02-03T05:20:41.164Z,99.99
2019-02-03T05:21:41.391Z,99.99
2019-02-03T05:22:41.138Z,99.99
2019-02-03T05:23:41.121Z,99.99
2019-02-03T05:24:41.111Z,99.99
2019-02-03T05:25:41.107Z,99.99
2019-02-03T05:26:41.400Z,99.99
2019-02-03T05:27:41.342Z,99.99
2019-02-03T05:28:41.343Z,99.99
2019-02-03T05:29:41.098Z,99.99
2019-02-03T05:30:41.063Z,99.99
2019-02-03T05:31:41.094Z,99.99
2019-02-03T05:32:41.274Z,99.99
2019-02-03T05:33:41.274Z,99.99
2019-02-03T05:34:41.030Z,99.99
2019-02-03T05:35:41.260Z,99.99
2019-02-03T05:36:41.007Z,99.99
2019-02-03T05:37:44.945Z,99.99
2019-02-03T05:38:41.241Z,99.99
2019-02-03T05:39:41.504Z,99.99
2019-02-03T05:40:41.200Z,99.99
2019-02-03T05:41:41.183Z,99.99
2019-02-03T05:42:40.921Z,99.99
2019-02-03T05:43:41.173Z,99.99
2019-02-03T05:44:41.152Z,99.99
2019-02-03T05:45:41.135Z,99.99
2019-02-03T05:46:41.132Z,99.99
2019-02-03T05:47:41.522Z,99.99
2019-02-03T05:48:40.872Z,99.99
2019-02-03T05:49:40.840Z,99.99
2019-02-03T05:50:40.837Z,99.99
2019-02-03T05:51:41.070Z,99.99
2019-02-03T05:52:41.066Z,99.99
2019-02-03T05:53:41.060Z,99.99
2019-02-03T05:54:41.044Z,99.99
2019-02-03T05:55:41.322Z,99.99
2019-02-03T05:56:41.092Z,99.99
2019-02-03T05:57:41.066Z,99.99
2019-02-03T05:58:40.764Z,99.99
2019-02-03T05:59:40.753Z,99.99
2019-02-03T06:00:40.726Z,99.99
2019-02-03T06:01:40.995Z,99.99
2019-02-03T06:02:40.729Z,99.99
2019-02-03T06:03:41.354Z,99.99
2019-02-03T06:04:40.945Z,99.99
2019-02-03T06:05:40.957Z,99.99
2019-02-03T06:06:40.914Z,99.99
2019-02-03T06:07:40.659Z,99.99
2019-02-03T06:08:41.707Z,99.99
2019-02-03T06:09:40.655Z,99.99
2019-02-03T06:10:40.643Z,99.99
2019-02-03T06:11:40.915Z,99.99
2019-02-03T06:12:40.860Z,99.99
2019-02-03T06:13:40.595Z,99.99
2019-02-03T06:14:40.836Z,99.99
2019-02-03T06:15:40.828Z,99.99
2019-02-03T06:16:40.815Z,99.99
2019-02-03T06:17:40.806Z,99.99
2019-02-03T06:18:40.790Z,99.99
2019-02-03T06:19:41.041Z,99.99
2019-02-03T06:20:40.529Z,99.99
2019-02-03T06:21:40.512Z,99.99
2019-02-03T06:22:40.514Z,99.99
2019-02-03T06:23:40.496Z,99.99
2019-02-03T06:24:40.490Z,99.99
2019-02-03T06:25:40.756Z,99.99
2019-02-03T06:26:40.737Z,99.99
2019-02-03T06:27:40.761Z,99.99
2019-02-03T06:28:40.704Z,99.99
2019-02-03T06:29:40.424Z,99.99
2019-02-03T06:30:40.468Z,99.99
2019-02-03T06:31:40.692Z,99.99
2019-02-03T06:32:40.399Z,99.99
2019-02-03T06:33:40.400Z,99.99
2019-02-03T06:34:40.393Z,99.99
2019-02-03T06:35:40.877Z,99.99
2019-02-03T06:36:40.606Z,99.99
2019-02-03T06:37:40.603Z,99.99
2019-02-03T06:38:43.036Z,99.99
2019-02-03T06:39:50.945Z,99.99
2019-02-03T06:40:40.561Z,99.99
2019-02-03T06:41:40.300Z,99.99
2019-02-03T06:42:40.289Z,99.99
2019-02-03T06:43:40.809Z,99.99
2019-02-03T06:44:40.526Z,99.99
2019-02-03T06:45:40.524Z,99.99
2019-02-03T06:46:40.252Z,99.99
2019-02-03T06:47:40.237Z,99.99
2019-02-03T06:48:40.484Z,99.99
2019-02-03T06:49:40.461Z,99.99
2019-02-03T06:50:40.458Z,99.99
2019-02-03T06:51:40.446Z,99.99
2019-02-03T06:52:40.191Z,99.99
2019-02-03T06:53:42.630Z,99.99
2019-02-03T06:54:40.427Z,99.99
2019-02-03T06:55:40.407Z,99.99
2019-02-03T06:56:40.418Z,99.99
2019-02-03T06:57:40.375Z,99.99
2019-02-03T06:58:40.170Z,99.99
2019-02-03T06:59:50.310Z,99.99
2019-02-03T07:00:40.098Z,99.99
2019-02-03T07:01:40.094Z,99.99
2019-02-03T07:02:40.091Z,99.99
2019-02-03T07:03:40.316Z,99.99
2019-02-03T07:04:40.319Z,99.99
2019-02-03T07:05:40.050Z,99.99
2019-02-03T07:06:40.288Z,99.99
2019-02-03T07:07:40.518Z,99.99
2019-02-03T07:08:40.259Z,99.99
2019-02-03T07:09:40.006Z,99.99
2019-02-03T07:10:40.239Z,99.99
2019-02-03T07:11:39.976Z,99.99
2019-02-03T07:12:40.230Z,99.99
2019-02-03T07:13:39.981Z,99.99
2019-02-03T07:14:40.200Z,99.99
2019-02-03T07:15:40.078Z,99.99
2019-02-03T07:16:46.646Z,99.99
2019-02-03T07:17:40.178Z,99.99
2019-02-03T07:18:39.913Z,99.99
2019-02-03T07:19:39.889Z,99.99
2019-02-03T07:20:39.891Z,99.99
2019-02-03T07:21:39.879Z,99.99
2019-02-03T07:22:40.156Z,99.99
2019-02-03T07:23:40.091Z,99.99
2019-02-03T07:24:40.096Z,99.99
2019-02-03T07:25:40.095Z,99.99
2019-02-03T07:26:39.841Z,99.99
2019-02-03T07:27:39.818Z,99.99
2019-02-03T07:28:40.044Z,99.99
2019-02-03T07:29:39.803Z,99.99
2019-02-03T07:30:40.026Z,99.99
2019-02-03T07:31:40.029Z,99.99
2019-02-03T07:32:39.997Z,99.99
2019-02-03T07:33:39.744Z,99.99
2019-02-03T07:34:39.977Z,99.99
2019-02-03T07:35:39.967Z,99.99
2019-02-03T07:36:39.960Z,99.99
2019-02-03T07:37:39.952Z,99.99
2019-02-03T07:38:39.687Z,99.99
2019-02-03T07:39:39.928Z,99.99
2019-02-03T07:40:39.911Z,99.99
2019-02-03T07:41:39.912Z,99.99
2019-02-03T07:42:39.902Z,99.99
2019-02-03T07:43:39.892Z,99.99
2019-02-03T07:44:39.870Z,99.99
2019-02-03T07:45:39.867Z,99.99
2019-02-03T07:46:39.855Z,99.99
2019-02-03T07:47:39.580Z,99.99
2019-02-03T07:48:39.832Z,99.99
2019-02-03T07:49:39.582Z,99.99
2019-02-03T07:50:39.817Z,99.99
2019-02-03T07:51:39.817Z,99.99
2019-02-03T07:52:39.787Z,99.99
2019-02-03T07:53:39.788Z,99.99
2019-02-03T07:54:39.530Z,99.99
2019-02-03T07:55:39.750Z,99.99
2019-02-03T07:56:39.800Z,99.99
2019-02-03T07:57:39.837Z,99.99
2019-02-03T07:58:39.718Z,99.99
2019-02-03T07:59:39.715Z,99.99
2019-02-03T08:00:39.443Z,99.99
2019-02-03T08:01:39.447Z,99.99
2019-02-03T08:02:39.430Z,99.99
2019-02-03T08:03:39.851Z,99.99
2019-02-03T08:04:39.659Z,99.99
2019-02-03T08:05:39.642Z,99.99
2019-02-03T08:06:39.637Z,99.99
2019-02-03T08:07:39.639Z,99.99
2019-02-03T08:08:39.630Z,99.99
2019-02-03T08:09:39.351Z,99.99
2019-02-03T08:10:39.582Z,99.99
2019-02-03T08:11:39.772Z,99.99
2019-02-03T08:12:39.573Z,99.99
2019-02-03T08:13:39.557Z,99.99
2019-02-03T08:14:39.306Z,99.99
2019-02-03T08:15:39.284Z,99.99
2019-02-03T08:16:39.534Z,99.99
2019-02-03T08:17:40.650Z,99.99
2019-02-03T08:18:39.345Z,99.99
2019-02-03T08:19:39.709Z,99.99
2019-02-03T08:20:39.465Z,99.99
2019-02-03T08:21:39.459Z,99.99
2019-02-03T08:22:39.221Z,99.99
2019-02-03T08:23:39.432Z,99.99
2019-02-03T08:24:39.437Z,99.99
2019-02-03T08:25:39.434Z,99.99
2019-02-03T08:26:39.435Z,99.99
2019-02-03T08:27:39.704Z,99.99
2019-02-03T08:28:39.392Z,99.99
2019-02-03T08:29:39.376Z,99.99
2019-02-03T08:30:39.150Z,99.99
2019-02-03T08:31:39.391Z,99.99
2019-02-03T08:32:39.360Z,99.99
2019-02-03T08:33:39.333Z,99.99
2019-02-03T08:34:39.089Z,99.99
2019-02-03T08:35:39.303Z,99.99
2019-02-03T08:36:39.188Z,99.99
2019-02-03T08:37:39.284Z,99.99
2019-02-03T08:38:39.288Z,99.99
2019-02-03T08:39:40.408Z,99.99
2019-02-03T08:40:40.119Z,99.99
2019-02-03T08:41:39.266Z,99.99
2019-02-03T08:42:39.009Z,99.99
2019-02-03T08:43:39.716Z,99.99
2019-02-03T08:44:39.212Z,99.99
2019-02-03T08:45:39.207Z,99.99
2019-02-03T08:46:38.947Z,99.99
2019-02-03T08:47:39.186Z,99.99
2019-02-03T08:48:39.178Z,99.99
2019-02-03T08:49:39.161Z,99.99
2019-02-03T08:50:38.897Z,99.99
2019-02-03T08:51:39.504Z,99.99
2019-02-03T08:52:39.141Z,99.99
2019-02-03T08:53:39.121Z,99.99
2019-02-03T08:54:58.068Z,99.99
2019-02-03T08:55:39.148Z,99.99
2019-02-03T08:56:39.078Z,99.99
2019-02-03T08:57:38.816Z,99.99
2019-02-03T08:58:39.070Z,99.99
2019-02-03T08:59:39.379Z,99.99
2019-02-03T09:00:39.061Z,99.99
2019-02-03T09:01:38.764Z,99.99
2019-02-03T09:02:39.018Z,99.99
2019-02-03T09:03:39.015Z,99.99
2019-02-03T09:04:38.989Z,99.99
2019-02-03T09:05:38.972Z,99.99
2019-02-03T09:06:38.989Z,99.99
2019-02-03T09:07:39.290Z,99.99
2019-02-03T09:08:38.990Z,99.99
2019-02-03T09:09:38.696Z,99.99
2019-02-03T09:10:50.375Z,99.99
2019-02-03T09:11:38.923Z,99.99
2019-02-03T09:12:38.904Z,99.99
2019-02-03T09:13:38.903Z,99.99
2019-02-03T09:14:38.881Z,99.99
2019-02-03T09:15:39.199Z,99.99
2019-02-03T09:16:38.852Z,99.99
2019-02-03T09:17:38.606Z,99.99
2019-02-03T09:18:38.605Z,99.99
2019-02-03T09:19:38.816Z,99.99
2019-02-03T09:20:38.818Z,99.99
2019-02-03T09:21:38.807Z,99.99
2019-02-03T09:22:40.078Z,99.99
2019-02-03T09:23:39.118Z,99.99
2019-02-03T09:24:38.776Z,99.99
2019-02-03T09:25:38.505Z,99.99
2019-02-03T09:26:38.762Z,99.99
2019-02-03T09:27:38.479Z,99.99
2019-02-03T09:28:38.475Z,99.99
2019-02-03T09:29:38.840Z,99.99
2019-02-03T09:30:38.702Z,99.99
2019-02-03T09:31:39.023Z,99.99
2019-02-03T09:32:38.678Z,99.99
2019-02-03T09:33:38.672Z,99.99
2019-02-03T09:34:38.410Z,99.99
2019-02-03T09:35:38.638Z,99.99
2019-02-03T09:36:38.637Z,99.99
2019-02-03T09:37:38.628Z,99.99
2019-02-03T09:38:38.367Z,99.99
2019-02-03T09:39:38.853Z,99.99
2019-02-03T09:40:39.402Z,99.99
2019-02-03T09:41:38.329Z,99.99
2019-02-03T09:42:38.575Z,99.99
2019-02-03T09:43:38.552Z,99.99
2019-02-03T09:44:38.304Z,99.99
2019-02-03T09:45:38.541Z,99.99
2019-02-03T09:46:38.528Z,99.99
2019-02-03T09:47:38.830Z,99.99
2019-02-03T09:48:38.255Z,99.99
2019-02-03T09:49:40.501Z,99.99
2019-02-03T09:50:38.482Z,99.99
2019-02-03T09:51:38.489Z,99.99
2019-02-03T09:52:38.221Z,99.99
2019-02-03T09:53:38.458Z,99.99
2019-02-03T09:54:38.438Z,99.99
2019-02-03T09:55:38.727Z,99.99
2019-02-03T09:56:38.428Z,99.99
2019-02-03T09:57:38.161Z,99.99
2019-02-03T09:58:38.398Z,99.99
2019-02-03T09:59:38.392Z,99.99
2019-02-03T10:00:38.391Z,99.99
2019-02-03T10:01:38.360Z,99.99
2019-02-03T10:02:38.357Z,99.99
2019-02-03T10:03:38.664Z,99.99
2019-02-03T10:04:38.336Z,99.99
2019-02-03T10:05:39.782Z,99.99
2019-02-03T10:06:38.337Z,99.99
2019-02-03T10:07:38.056Z,99.99
2019-02-03T10:08:43.405Z,99.99
2019-02-03T10:09:38.289Z,99.99
2019-02-03T10:10:38.271Z,99.99
2019-02-03T10:11:38.575Z,99.99
2019-02-03T10:12:38.245Z,99.99
2019-02-03T10:13:38.250Z,99.99
2019-02-03T10:14:38.234Z,99.99
2019-02-03T10:15:38.240Z,99.99
2019-02-03T10:16:38.211Z,99.99
2019-02-03T10:17:38.194Z,99.99
2019-02-03T10:18:38.181Z,99.99
2019-02-03T10:19:38.507Z,99.99
2019-02-03T10:20:38.169Z,99.99
2019-02-03T10:21:38.281Z,99.99
2019-02-03T10:22:38.151Z,99.99
2019-02-03T10:23:38.130Z,99.99
2019-02-03T10:24:44.903Z,99.99
2019-02-03T10:25:38.107Z,99.99
2019-02-03T10:26:37.868Z,99.99
2019-02-03T10:27:38.434Z,99.99
2019-02-03T10:28:38.087Z,99.99
2019-02-03T10:29:38.086Z,99.99
2019-02-03T10:30:38.061Z,99.99
2019-02-03T10:31:37.796Z,99.99
2019-02-03T10:32:38.042Z,99.99
2019-02-03T10:33:37.822Z,99.99
2019-02-03T10:34:38.097Z,99.99
2019-02-03T10:35:38.346Z,99.99
2019-02-03T10:36:37.743Z,99.99
2019-02-03T10:37:37.736Z,99.99
2019-02-03T10:38:37.722Z,99.99
2019-02-03T10:39:37.972Z,99.99
2019-02-03T10:40:37.960Z,99.99
2019-02-03T10:41:37.949Z,99.99
2019-02-03T10:42:37.702Z,99.99
2019-02-03T10:43:38.055Z,99.99
2019-02-03T10:44:37.663Z,99.99
2019-02-03T10:45:37.902Z,99.99
2019-02-03T10:46:37.905Z,99.1
2019-02-03T10:47:37.655Z,99.1
2019-02-03T10:48:37.622Z,99.29
2019-02-03T10:49:37.867Z,99.29
2019-02-03T10:50:38.110Z,98.72
2019-02-03T10:51:37.877Z,99.99
2019-02-03T10:52:37.598Z,99.67
2019-02-03T10:53:37.579Z,99.99
2019-02-03T10:54:37.570Z,99.99
2019-02-03T10:55:37.810Z,99.99
2019-02-03T10:56:37.609Z,99.99
2019-02-03T10:57:37.817Z,99.1
2019-02-03T10:58:37.974Z,99.2
2019-02-03T10:59:37.784Z,99.99
2019-02-03T11:00:37.782Z,99.99
2019-02-03T11:01:37.766Z,99.39
2019-02-03T11:02:37.496Z,99.29
2019-02-03T11:03:37.732Z,99.77
2019-02-03T11:04:37.716Z,99.58
2019-02-03T11:05:37.698Z,98.54
2019-02-03T11:06:38.027Z,96.45
2019-02-03T11:07:37.676Z,95.41
2019-02-03T11:08:37.664Z,95.69
2019-02-03T11:09:37.658Z,96.36
2019-02-03T11:10:37.650Z,96.17
2019-02-03T11:11:39.553Z,95.69
2019-02-03T11:12:37.627Z,94.74
2019-02-03T11:13:37.381Z,93.89
2019-02-03T11:14:37.610Z,94.74
2019-02-03T11:15:37.598Z,94.08
2019-02-03T11:16:37.615Z,94.08
2019-02-03T11:17:37.580Z,93.32
2019-02-03T11:18:37.582Z,92.28
2019-02-03T11:19:37.560Z,92.47
2019-02-03T11:20:37.560Z,91.81
2019-02-03T11:21:37.811Z,90.1
2019-02-03T11:22:37.281Z,90.58
2019-02-03T11:23:37.291Z,91.24
2019-02-03T11:24:37.268Z,90.86
2019-02-03T11:25:37.511Z,91.81
2019-02-03T11:26:37.295Z,91.9
2019-02-03T11:27:37.475Z,91.24
2019-02-03T11:28:37.468Z,90.48
2019-02-03T11:29:37.438Z,90.39
2019-02-03T11:30:37.471Z,89.72
2019-02-03T11:31:37.443Z,89.72
2019-02-03T11:32:37.422Z,89.72
2019-02-03T11:33:37.540Z,88.02
2019-02-03T11:34:37.402Z,88.68
2019-02-03T11:35:37.163Z,87.92
2019-02-03T11:36:37.643Z,87.54
2019-02-03T11:37:37.126Z,87.45
2019-02-03T11:38:37.368Z,87.83
2019-02-03T11:39:37.117Z,88.4
2019-02-03T11:40:37.097Z,88.96
2019-02-03T11:41:48.519Z,89.25
2019-02-03T11:42:37.329Z,87.73
2019-02-03T11:43:37.520Z,87.35
2019-02-03T11:44:37.677Z,87.16
2019-02-03T11:45:37.302Z,87.26
2019-02-03T11:46:37.038Z,87.45
2019-02-03T11:47:37.015Z,87.92
2019-02-03T11:48:37.263Z,88.21
2019-02-03T11:49:37.255Z,88.4
2019-02-03T11:50:37.302Z,89.06
2019-02-03T11:51:37.228Z,89.63
2019-02-03T11:52:37.334Z,90.95
2019-02-03T11:53:37.200Z,91.43
2019-02-03T11:54:36.966Z,90.86
2019-02-03T11:55:36.939Z,91.43
2019-02-03T11:56:37.196Z,91.71
2019-02-03T11:57:37.174Z,92.09
2019-02-03T11:58:36.902Z,93.13
2019-02-03T11:59:36.903Z,92.66
2019-02-03T12:00:37.484Z,91.9
2019-02-03T12:01:37.139Z,92.38
2019-02-03T12:02:44.396Z,92
2019-02-03T12:03:37.115Z,92.09
2019-02-03T12:04:37.081Z,92.57
2019-02-03T12:05:36.967Z,93.23
2019-02-03T12:06:37.079Z,92.94
2019-02-03T12:07:37.055Z,91.9
2019-02-03T12:08:37.356Z,92.28
2019-02-03T12:09:36.773Z,93.32
2019-02-03T12:10:36.767Z,93.13
2019-02-03T12:11:37.107Z,92.47
2019-02-03T12:12:36.996Z,92.47
2019-02-03T12:13:36.982Z,91.43
2019-02-03T12:14:36.972Z,91.43
2019-02-03T12:15:36.962Z,91.24
2019-02-03T12:16:36.704Z,91.52
2019-02-03T12:17:36.936Z,92.38
2019-02-03T12:18:36.960Z,91.81
2019-02-03T12:19:36.926Z,92.19
2019-02-03T12:20:36.907Z,91.62
2019-02-03T12:21:36.897Z,90.86
2019-02-03T12:22:36.650Z,90.58
2019-02-03T12:23:36.877Z,90.67
2019-02-03T12:24:36.880Z,90.39
2019-02-03T12:25:36.966Z,90.48
2019-02-03T12:26:38.936Z,89.82
2019-02-03T12:27:36.607Z,89.63
2019-02-03T12:28:36.595Z,88.87
2019-02-03T12:29:36.828Z,87.83
2019-02-03T12:30:36.568Z,88.68
2019-02-03T12:31:36.567Z,89.25
2019-02-03T12:32:36.536Z,89.06
2019-02-03T12:33:37.126Z,89.25
2019-02-03T12:34:36.520Z,89.15
2019-02-03T12:35:36.760Z,89.53
2019-02-03T12:36:39.790Z,89.82
2019-02-03T12:37:36.727Z,89.53
2019-02-03T12:38:36.743Z,89.15
2019-02-03T12:39:36.476Z,88.96
2019-02-03T12:40:36.460Z,89.06
2019-02-03T12:41:37.021Z,88.96
2019-02-03T12:42:39.932Z,88.59
2019-02-03T12:43:36.681Z,89.06
2019-02-03T12:44:36.414Z,88.59
2019-02-03T12:45:36.655Z,89.34
2019-02-03T12:46:38.780Z,89.53
2019-02-03T12:47:36.385Z,90.29
2019-02-03T12:48:36.625Z,90.58
2019-02-03T12:49:36.815Z,90.1
2019-02-03T12:50:36.604Z,89.53
2019-02-03T12:51:36.595Z,90.29
2019-02-03T12:52:36.327Z,90.29
2019-02-03T12:53:36.322Z,90.29